createdAt,value
2018-11-07T00:01:59.459Z,14.07
2018-11-07T00:04:27.978Z,13.30
2018-11-07T00:06:56.509Z,12.57
2018-11-07T00:09:25.002Z,13.60
2018-11-07T00:11:53.577Z,13.07
2018-11-07T00:14:22.255Z,12.17
2018-11-07T00:16:50.793Z,12.83
2018-11-07T00:19:19.665Z,12.90
2018-11-07T00:21:48.160Z,12.33
2018-11-07T00:24:16.798Z,13.60
2018-11-07T00:26:45.867Z,13.45
2018-11-07T00:29:14.384Z,13.17
2018-11-07T00:31:44.196Z,13.63
2018-11-07T00:34:12.811Z,14.23
2018-11-07T00:36:41.341Z,13.70
2018-11-07T00:39:11.150Z,13.67
2018-11-07T00:41:39.697Z,12.20
2018-11-07T00:44:08.865Z,12.17
2018-11-07T00:46:38.161Z,12.87
2018-11-07T00:49:06.742Z,13.67
2018-11-07T00:51:35.260Z,14.45
2018-11-07T00:54:03.936Z,13.20
2018-11-07T00:56:32.543Z,11.57
2018-11-07T00:59:01.127Z,12.60
2018-11-07T01:01:29.672Z,12.90
2018-11-07T01:03:58.237Z,12.80
2018-11-07T01:06:26.810Z,12.63
2018-11-07T01:08:55.365Z,11.73
2018-11-07T01:11:23.946Z,11.50
2018-11-07T01:13:53.226Z,12.20
2018-11-07T01:16:21.842Z,12.23
2018-11-07T01:18:50.479Z,13.40
2018-11-07T01:21:19.080Z,12.30
2018-11-07T01:23:47.640Z,13.00
2018-11-07T01:26:16.195Z,11.63
2018-11-07T01:28:46.182Z,12.90
2018-11-07T01:31:14.731Z,12.57
2018-11-07T01:33:43.454Z,13.87
2018-11-07T01:36:12.782Z,13.23
2018-11-07T01:38:41.356Z,12.00
2018-11-07T01:41:10.472Z,13.43
2018-11-07T01:43:39.052Z,12.70
2018-11-07T01:46:09.440Z,11.33
2018-11-07T01:48:37.997Z,11.43
2018-11-07T01:51:07.065Z,13.50
2018-11-07T01:53:35.587Z,11.40
2018-11-07T01:56:04.124Z,12.50
2018-11-07T01:58:32.709Z,12.93
2018-11-07T02:01:01.253Z,12.50
2018-11-07T02:03:30.087Z,13.87
2018-11-07T02:05:58.654Z,12.30
2018-11-07T02:08:30.395Z,13.10
2018-11-07T02:10:59.721Z,11.93
2018-11-07T02:13:28.291Z,12.00
2018-11-07T02:15:57.126Z,11.90
2018-11-07T02:18:25.850Z,12.10
2018-11-07T02:20:54.478Z,12.55
2018-11-07T02:23:23.058Z,11.97
2018-11-07T02:25:51.590Z,12.10
2018-11-07T02:28:20.922Z,12.80
2018-11-07T02:30:49.482Z,13.30
2018-11-07T02:33:18.121Z,11.73
2018-11-07T02:35:46.662Z,10.97
2018-11-07T02:38:15.269Z,11.20
2018-11-07T02:40:43.816Z,10.83
2018-11-07T02:43:12.383Z,11.90
2018-11-07T02:45:40.953Z,10.37
2018-11-07T02:48:09.658Z,12.17
2018-11-07T02:50:38.682Z,10.57
2018-11-07T02:53:08.330Z,11.67
2018-11-07T02:55:37.510Z,10.90
2018-11-07T02:58:06.330Z,11.13
2018-11-07T03:00:34.883Z,10.70
2018-11-07T03:03:04.055Z,11.80
2018-11-07T03:05:33.546Z,11.27
2018-11-07T03:08:02.968Z,12.93
2018-11-07T03:10:31.554Z,11.53
2018-11-07T03:13:00.142Z,12.23
2018-11-07T03:15:29.391Z,11.40
2018-11-07T03:17:58.494Z,12.20
2018-11-07T03:20:28.742Z,12.63
2018-11-07T03:22:57.262Z,11.03
2018-11-07T03:25:26.662Z,10.80
2018-11-07T03:27:55.573Z,11.07
2018-11-07T03:30:24.129Z,10.30
2018-11-07T03:32:52.666Z,12.43
2018-11-07T03:35:28.148Z,11.43
2018-11-07T03:37:57.766Z,11.50
2018-11-07T03:40:26.941Z,11.67
2018-11-07T03:42:56.136Z,10.70
2018-11-07T03:45:30.222Z,10.73
2018-11-07T03:48:01.648Z,10.80
2018-11-07T03:50:30.429Z,11.33
2018-11-07T03:52:58.949Z,11.90
2018-11-07T03:55:27.628Z,11.07
2018-11-07T03:57:56.835Z,11.77
2018-11-07T04:00:26.611Z,12.23
2018-11-07T04:02:55.260Z,10.23
2018-11-07T04:05:24.504Z,12.17
2018-11-07T04:07:53.845Z,12.00
2018-11-07T04:10:22.477Z,11.50
2018-11-07T04:12:51.060Z,10.77
2018-11-07T04:15:19.663Z,10.83
2018-11-07T04:17:49.575Z,11.03
2018-11-07T04:20:18.093Z,10.83
2018-11-07T04:22:46.632Z,12.63
2018-11-07T04:25:15.756Z,10.82
2018-11-07T04:27:44.258Z,10.70
2018-11-07T04:30:13.578Z,9.50
2018-11-07T04:32:43.112Z,10.20
2018-11-07T04:35:12.581Z,9.53
2018-11-07T04:37:41.741Z,9.80
2018-11-07T04:40:12.123Z,10.30
2018-11-07T04:42:41.161Z,10.70
2018-11-07T04:45:10.911Z,9.50
2018-11-07T04:47:39.426Z,10.70
2018-11-07T04:50:09.844Z,10.45
2018-11-07T04:52:38.497Z,11.40
2018-11-07T04:55:07.044Z,11.13
2018-11-07T04:57:35.728Z,11.50
2018-11-07T05:00:04.888Z,11.20
2018-11-07T05:02:33.400Z,11.43
2018-11-07T05:05:02.091Z,12.10
2018-11-07T05:07:31.216Z,14.33
2018-11-07T05:09:59.731Z,13.20
2018-11-07T05:12:28.356Z,11.67
2018-11-07T05:14:57.629Z,11.40
2018-11-07T05:17:26.647Z,13.67
2018-11-07T05:19:55.783Z,11.07
2018-11-07T05:22:24.327Z,12.50
2018-11-07T05:24:53.006Z,11.83
2018-11-07T05:27:21.656Z,12.00
2018-11-07T05:29:50.164Z,12.33
2018-11-07T05:32:18.796Z,11.70
2018-11-07T05:34:47.381Z,12.40
2018-11-07T05:37:15.972Z,12.33
2018-11-07T05:39:44.563Z,12.17
2018-11-07T05:42:13.129Z,13.10
2018-11-07T05:44:41.745Z,12.60
2018-11-07T05:47:10.248Z,12.33
2018-11-07T05:49:38.889Z,13.97
2018-11-07T05:52:07.413Z,13.20
2018-11-07T05:54:36.031Z,15.30
2018-11-07T05:57:04.768Z,13.10
2018-11-07T05:59:33.372Z,12.20
2018-11-07T06:02:01.899Z,12.77
2018-11-07T06:04:30.465Z,13.10
2018-11-07T06:06:59.090Z,13.63
2018-11-07T06:09:27.623Z,13.23
2018-11-07T06:11:56.983Z,13.77
2018-11-07T06:14:25.535Z,14.30
2018-11-07T06:16:54.107Z,13.67
2018-11-07T06:19:22.753Z,15.10
2018-11-07T06:21:51.303Z,14.90
2018-11-07T06:24:19.855Z,14.83
2018-11-07T06:26:48.363Z,14.00
2018-11-07T06:29:16.875Z,14.63
2018-11-07T06:31:45.459Z,14.38
2018-11-07T06:34:14.216Z,13.23
2018-11-07T06:36:42.768Z,14.63
2018-11-07T06:39:11.732Z,14.83
2018-11-07T06:41:40.432Z,15.40
2018-11-07T06:44:09.452Z,14.97
2018-11-07T06:46:38.015Z,16.63
2018-11-07T06:49:06.716Z,15.70
2018-11-07T06:51:35.254Z,16.53
2018-11-07T06:54:03.843Z,15.40
2018-11-07T06:56:32.383Z,15.63
2018-11-07T06:59:00.938Z,14.33
2018-11-07T07:01:29.501Z,14.67
2018-11-07T07:03:57.985Z,14.23
2018-11-07T07:06:26.650Z,12.87
2018-11-07T07:08:55.166Z,13.70
2018-11-07T07:11:23.705Z,14.87
2018-11-07T07:13:52.261Z,12.60
2018-11-07T07:16:20.762Z,13.03
2018-11-07T07:18:49.439Z,12.40
2018-11-07T07:21:17.946Z,11.30
2018-11-07T07:23:46.479Z,12.63
2018-11-07T07:26:15.100Z,10.67
2018-11-07T07:28:43.668Z,10.90
2018-11-07T07:31:12.249Z,9.57
2018-11-07T07:33:40.860Z,9.47
2018-11-07T07:36:09.415Z,8.75
2018-11-07T07:38:37.959Z,8.97
2018-11-07T07:41:06.507Z,6.80
2018-11-07T07:43:35.123Z,8.37
2018-11-07T07:46:04.939Z,7.50
2018-11-07T07:48:33.582Z,7.93
2018-11-07T07:51:02.214Z,8.30
2018-11-07T07:53:30.777Z,8.50
2018-11-07T07:55:59.387Z,7.57
2018-11-07T07:58:27.920Z,7.57
2018-11-07T08:00:56.504Z,7.97
2018-11-07T08:03:25.083Z,7.53
2018-11-07T08:05:53.615Z,7.13
2018-11-07T08:08:22.161Z,8.07
2018-11-07T08:14:22.478Z,7.20
2018-11-07T08:16:51.027Z,6.67
2018-11-07T08:19:19.546Z,6.67
2018-11-07T08:21:48.045Z,6.80
2018-11-07T08:24:16.614Z,6.63
2018-11-07T08:26:45.115Z,6.87
2018-11-07T08:29:13.644Z,5.97
2018-11-07T08:31:42.295Z,5.10
2018-11-07T08:34:10.818Z,5.87
2018-11-07T08:36:39.331Z,6.10
2018-11-07T08:39:10.345Z,6.80
2018-11-07T08:41:39.027Z,5.93
2018-11-07T08:44:08.242Z,5.63
2018-11-07T08:46:36.745Z,6.40
2018-11-07T08:49:05.400Z,5.30
2018-11-07T08:51:33.951Z,5.90
2018-11-07T08:54:02.459Z,6.17
2018-11-07T08:56:31.022Z,5.53
2018-11-07T08:58:59.537Z,5.40
2018-11-07T09:01:28.161Z,6.00
2018-11-07T09:03:56.713Z,4.80
2018-11-07T09:06:25.296Z,5.30
2018-11-07T09:08:53.851Z,6.80
2018-11-07T09:11:22.386Z,4.80
2018-11-07T09:13:51.054Z,5.23
2018-11-07T09:16:19.653Z,4.77
2018-11-07T09:18:48.231Z,4.80
2018-11-07T09:21:23.380Z,5.97
2018-11-07T09:23:51.945Z,5.03
2018-11-07T09:26:20.624Z,5.30
2018-11-07T09:28:49.165Z,4.83
2018-11-07T09:31:17.699Z,4.80
2018-11-07T09:33:46.299Z,3.87
2018-11-07T09:36:14.832Z,4.10
2018-11-07T09:38:43.493Z,4.60
2018-11-07T09:41:12.022Z,4.17
2018-11-07T09:43:40.558Z,4.30
2018-11-07T09:46:09.089Z,4.20
2018-11-07T09:48:37.656Z,4.33
2018-11-07T09:51:06.544Z,3.83
2018-11-07T09:53:35.198Z,4.13
2018-11-07T09:56:03.694Z,3.73
2018-11-07T09:58:32.208Z,3.07
2018-11-07T10:01:00.782Z,4.37
2018-11-07T10:03:29.282Z,3.40
2018-11-07T10:05:57.838Z,3.90
2018-11-07T10:08:26.400Z,3.63
2018-11-07T10:10:54.974Z,3.57
2018-11-07T10:13:23.542Z,4.07
2018-11-07T10:15:52.113Z,3.50
2018-11-07T10:18:20.620Z,3.43
2018-11-07T10:20:49.193Z,3.53
2018-11-07T10:23:17.734Z,2.97
2018-11-07T10:25:46.235Z,3.43
2018-11-07T10:28:14.904Z,3.07
2018-11-07T10:30:43.392Z,3.63
2018-11-07T10:33:11.947Z,3.40
2018-11-07T10:35:40.487Z,3.20
2018-11-07T10:38:09.182Z,3.00
2018-11-07T10:40:37.650Z,3.20
2018-11-07T10:43:06.244Z,3.07
2018-11-07T10:45:35.676Z,3.67
2018-11-07T10:48:04.209Z,3.23
2018-11-07T10:50:32.843Z,3.23
2018-11-07T10:53:01.539Z,3.70
2018-11-07T10:55:30.092Z,3.43
2018-11-07T10:57:58.688Z,3.23
2018-11-07T11:00:32.614Z,3.03
2018-11-07T11:03:15.443Z,3.27
2018-11-07T11:05:43.999Z,3.00
2018-11-07T11:08:12.532Z,3.20
2018-11-07T11:10:41.059Z,3.03
2018-11-07T11:13:09.669Z,3.00
2018-11-07T11:15:38.230Z,3.10
2018-11-07T11:18:06.902Z,3.40
2018-11-07T11:20:35.472Z,3.37
2018-11-07T11:23:04.023Z,2.70
2018-11-07T11:25:32.566Z,3.50
2018-11-07T11:28:01.205Z,3.10
2018-11-07T11:30:29.783Z,2.90
2018-11-07T11:32:58.308Z,2.60
2018-11-07T11:35:27.040Z,2.73
2018-11-07T11:37:55.672Z,3.10
2018-11-07T11:40:24.253Z,3.30
2018-11-07T11:42:52.784Z,2.90
2018-11-07T11:45:21.361Z,2.60
2018-11-07T11:47:49.887Z,2.70
2018-11-07T11:50:19.738Z,2.85
2018-11-07T11:52:48.950Z,2.67
2018-11-07T11:55:17.720Z,2.83
2018-11-07T11:57:46.725Z,2.80
2018-11-07T12:00:17.032Z,2.90
2018-11-07T12:02:46.004Z,2.27
2018-11-07T12:05:15.488Z,2.70
2018-11-07T12:07:44.203Z,2.30
2018-11-07T12:10:21.118Z,2.83
2018-11-07T12:12:57.228Z,2.50
2018-11-07T12:15:27.090Z,2.23
2018-11-07T12:17:55.895Z,3.17
2018-11-07T12:20:24.482Z,2.63
2018-11-07T12:22:53.009Z,2.57
2018-11-07T12:25:22.323Z,2.20
2018-11-07T12:27:50.814Z,1.97
2018-11-07T12:30:21.693Z,2.00
2018-11-07T12:32:51.478Z,1.70
2018-11-07T12:35:20.598Z,1.77
2018-11-07T12:37:49.115Z,1.47
2018-11-07T12:40:18.456Z,2.20
2018-11-07T12:42:47.050Z,1.67
2018-11-07T12:45:16.518Z,1.90
2018-11-07T12:47:45.082Z,3.13
2018-11-07T12:50:18.887Z,1.60
2018-11-07T12:52:47.659Z,1.40
2018-11-07T12:55:16.621Z,1.67
2018-11-07T12:57:45.207Z,1.27
2018-11-07T13:00:21.127Z,1.10
2018-11-07T13:02:49.733Z,1.93
2018-11-07T13:05:19.436Z,1.30
2018-11-07T13:07:48.671Z,1.57
2018-11-07T13:10:18.514Z,1.53
2018-11-07T13:12:47.790Z,1.30
2018-11-07T13:15:16.919Z,1.50
2018-11-07T13:17:46.033Z,1.40
2018-11-07T13:20:17.692Z,1.20
2018-11-07T13:22:47.726Z,1.47
2018-11-07T13:25:16.650Z,1.37
2018-11-07T13:27:45.251Z,1.73
2018-11-07T13:30:15.067Z,1.40
2018-11-07T13:32:43.623Z,1.33
2018-11-07T13:35:13.152Z,1.10
2018-11-07T13:37:42.580Z,1.10
2018-11-07T13:40:14.214Z,1.93
2018-11-07T13:42:42.902Z,1.60
2018-11-07T13:45:13.560Z,1.70
2018-11-07T13:47:43.287Z,1.70
2018-11-07T13:50:12.619Z,1.60
2018-11-07T13:52:41.278Z,1.40
2018-11-07T13:55:10.783Z,1.30
2018-11-07T13:57:39.859Z,1.30
2018-11-07T14:00:12.998Z,1.10
2018-11-07T14:02:41.680Z,1.70
2018-11-07T14:05:11.014Z,1.40
2018-11-07T14:07:39.870Z,1.37
2018-11-07T14:10:10.507Z,1.20
2018-11-07T14:12:39.151Z,1.50
2018-11-07T14:15:10.728Z,1.37
2018-11-07T14:17:39.282Z,1.10
2018-11-07T14:20:08.541Z,1.07
2018-11-07T14:22:37.127Z,2.00
2018-11-07T14:25:06.323Z,1.60
2018-11-07T14:27:35.013Z,1.50
2018-11-07T14:30:03.838Z,1.50
2018-11-07T14:32:32.853Z,1.30
2018-11-07T14:35:01.446Z,1.40
2018-11-07T14:37:30.052Z,1.40
2018-11-07T14:39:58.792Z,1.23
2018-11-07T14:42:30.560Z,1.37
2018-11-07T14:44:59.109Z,1.23
2018-11-07T14:47:27.691Z,1.50
2018-11-07T14:49:56.250Z,1.83
2018-11-07T14:52:24.989Z,1.50
2018-11-07T14:54:53.503Z,1.60
2018-11-07T14:57:22.030Z,1.67
2018-11-07T14:59:50.636Z,1.43
2018-11-07T15:02:19.161Z,1.80
2018-11-07T15:04:47.678Z,1.80
2018-11-07T15:07:16.218Z,1.90
2018-11-07T15:09:44.790Z,1.97
2018-11-07T15:12:13.351Z,1.70
2018-11-07T15:14:41.847Z,1.80
2018-11-07T15:17:10.526Z,1.50
2018-11-07T15:19:39.102Z,1.90
2018-11-07T15:22:07.711Z,2.33
2018-11-07T15:24:36.293Z,1.63
2018-11-07T15:27:04.964Z,2.10
2018-11-07T15:29:33.453Z,2.73
2018-11-07T15:32:01.946Z,1.90
2018-11-07T15:34:30.562Z,1.47
2018-11-07T15:36:59.099Z,1.70
2018-11-07T15:39:27.683Z,1.50
2018-11-07T15:41:56.268Z,1.43
2018-11-07T15:44:24.787Z,1.70
2018-11-07T15:46:53.305Z,1.70
2018-11-07T15:49:21.844Z,1.73
2018-11-07T15:51:54.114Z,1.50
2018-11-07T15:54:22.959Z,1.80
2018-11-07T15:56:51.481Z,2.03
2018-11-07T15:59:20.055Z,1.83
2018-11-07T16:01:48.601Z,1.70
2018-11-07T16:04:17.276Z,1.40
2018-11-07T16:06:45.780Z,2.00
2018-11-07T16:09:14.295Z,1.80
2018-11-07T16:11:42.901Z,2.37
2018-11-07T16:14:11.462Z,1.90
2018-11-07T16:16:39.962Z,1.50
2018-11-07T16:19:08.497Z,1.90
2018-11-07T16:21:36.997Z,2.30
2018-11-07T16:24:06.273Z,1.57
2018-11-07T16:26:34.842Z,1.80
2018-11-07T16:29:03.396Z,1.40
2018-11-07T16:32:34.885Z,2.00
2018-11-07T16:35:03.395Z,1.63
2018-11-07T16:37:31.918Z,1.80
2018-11-07T16:40:00.476Z,1.57
2018-11-07T16:42:28.974Z,1.47
2018-11-07T16:44:57.555Z,1.50
2018-11-07T16:47:26.113Z,1.40
2018-11-07T16:49:54.618Z,1.30
2018-11-07T16:52:23.201Z,1.40
2018-11-07T16:54:51.737Z,9.53
2018-11-07T16:57:20.379Z,10.20
2018-11-07T16:59:49.039Z,7.03
2018-11-07T17:02:18.162Z,5.60
2018-11-07T17:04:46.988Z,4.40
2018-11-07T17:07:15.828Z,3.20
2018-11-07T17:09:44.275Z,3.00
2018-11-07T17:12:12.769Z,2.47
2018-11-07T17:14:41.285Z,2.30
2018-11-07T17:17:09.843Z,2.67
2018-11-07T17:19:38.334Z,2.37
2018-11-07T17:22:06.849Z,2.63
2018-11-07T17:24:35.612Z,2.80
2018-11-07T17:27:04.066Z,2.60
2018-11-07T17:29:32.566Z,6.33
2018-11-07T17:32:01.370Z,8.10
2018-11-07T17:34:30.446Z,6.00
2018-11-07T17:36:59.033Z,4.60
2018-11-07T17:39:27.625Z,5.60
2018-11-07T17:41:56.232Z,6.70
2018-11-07T17:44:24.842Z,5.10
2018-11-07T17:46:53.393Z,4.30
2018-11-07T17:49:22.234Z,3.00
2018-11-07T17:51:50.853Z,3.80
2018-11-07T17:54:19.404Z,13.50
2018-11-07T17:59:11.859Z,6.37
2018-11-07T18:01:40.511Z,3.00
2018-11-07T18:04:09.139Z,3.30
2018-11-07T18:06:37.794Z,96.33
2018-11-07T18:09:08.282Z,34.03
2018-11-07T18:11:37.264Z,32.50
2018-11-07T18:14:06.294Z,44.70
2018-11-07T18:16:34.948Z,15.77
2018-11-07T18:19:03.470Z,5.60
2018-11-07T18:21:32.241Z,7.57
2018-11-07T18:24:00.842Z,3.77
2018-11-07T18:26:29.509Z,9.20
2018-11-07T18:28:58.025Z,14.20
2018-11-07T18:31:26.827Z,18.40
2018-11-07T18:33:55.352Z,3.97
2018-11-07T18:36:23.899Z,4.10
2018-11-07T18:38:52.454Z,4.53
2018-11-07T18:41:21.187Z,3.53
2018-11-07T18:43:49.700Z,3.73
2018-11-07T18:46:18.604Z,3.27
2018-11-07T18:48:47.260Z,3.47
2018-11-07T18:51:15.753Z,3.13
2018-11-07T18:53:44.352Z,3.47
2018-11-07T18:56:12.900Z,3.50
2018-11-07T18:58:41.588Z,2.90
2018-11-07T19:01:10.053Z,3.20
2018-11-07T19:03:38.643Z,3.00
2018-11-07T19:06:07.163Z,4.42
2018-11-07T19:08:35.795Z,3.70
2018-11-07T19:11:04.496Z,3.40
2018-11-07T19:13:33.207Z,3.20
2018-11-07T19:16:01.958Z,3.17
2018-11-07T19:18:30.651Z,3.67
2018-11-07T19:20:59.178Z,3.80
2018-11-07T19:23:27.716Z,3.43
2018-11-07T19:25:56.388Z,3.67
2018-11-07T19:28:25.245Z,3.20
2018-11-07T19:30:54.055Z,4.33
2018-11-07T19:33:22.962Z,4.40
2018-11-07T19:35:51.666Z,5.10
2018-11-07T19:38:21.166Z,3.50
2018-11-07T19:40:49.862Z,2.63
2018-11-07T19:43:18.998Z,2.80
2018-11-07T19:45:47.872Z,3.53
2018-11-07T19:48:16.507Z,3.07
2018-11-07T19:50:45.191Z,2.70
2018-11-07T19:53:13.929Z,3.00
2018-11-07T19:55:42.648Z,3.60
2018-11-07T19:58:11.395Z,3.00
2018-11-07T20:00:39.910Z,3.40
2018-11-07T20:03:08.592Z,3.30
2018-11-07T20:05:37.542Z,3.60
2018-11-07T20:08:06.122Z,2.80
2018-11-07T20:10:34.729Z,3.90
2018-11-07T20:13:03.413Z,3.77
2018-11-07T20:15:31.940Z,6.03
2018-11-07T20:18:00.579Z,4.77
2018-11-07T20:20:29.299Z,5.63
2018-11-07T20:22:57.869Z,3.90
2018-11-07T20:25:26.521Z,3.00
2018-11-07T20:27:55.087Z,3.87
2018-11-07T20:30:23.878Z,3.80
2018-11-07T20:32:52.378Z,4.20
2018-11-07T20:35:21.671Z,3.40
2018-11-07T20:37:50.321Z,3.23
2018-11-07T20:40:20.051Z,2.67
2018-11-07T20:42:48.686Z,3.00
2018-11-07T20:45:17.576Z,2.45
2018-11-07T20:47:46.220Z,3.60
2018-11-07T20:50:19.979Z,2.70
2018-11-07T20:52:49.226Z,3.13
2018-11-07T20:55:18.213Z,4.00
2018-11-07T20:57:46.823Z,12.70
2018-11-07T21:00:18.567Z,11.70
2018-11-07T21:02:47.381Z,7.00
2018-11-07T21:05:15.962Z,8.20
2018-11-07T21:07:44.509Z,3.20
2018-11-07T21:10:15.151Z,2.70
2018-11-07T21:12:44.152Z,2.40
2018-11-07T21:15:13.831Z,1.87
2018-11-07T21:17:43.235Z,2.10
2018-11-07T21:20:11.762Z,2.20
2018-11-07T21:22:40.806Z,2.10
2018-11-07T21:25:09.492Z,2.30
2018-11-07T21:27:38.095Z,2.60
2018-11-07T21:30:09.155Z,2.33
2018-11-07T21:32:37.833Z,2.00
2018-11-07T21:35:06.737Z,2.20
2018-11-07T21:37:35.234Z,2.70
2018-11-07T21:40:03.966Z,2.20
2018-11-07T21:42:32.521Z,2.50
2018-11-07T21:45:01.063Z,2.27
2018-11-07T21:47:36.198Z,2.30
2018-11-07T21:50:05.450Z,2.53
2018-11-07T21:52:33.933Z,2.80
2018-11-07T21:55:02.483Z,2.33
2018-11-07T21:57:30.990Z,2.13
2018-11-07T21:59:59.649Z,2.87
2018-11-07T22:02:28.204Z,2.70
2018-11-07T22:04:56.698Z,2.57
2018-11-07T22:07:25.207Z,2.50
2018-11-07T22:09:53.809Z,3.03
2018-11-07T22:12:22.385Z,3.23
2018-11-07T22:14:50.931Z,3.10
2018-11-07T22:17:19.491Z,2.63
2018-11-07T22:19:48.007Z,3.30
2018-11-07T22:22:16.548Z,2.63
2018-11-07T22:24:45.108Z,2.77
2018-11-07T22:27:13.722Z,3.00
2018-11-07T22:29:42.385Z,3.10
2018-11-07T22:32:10.942Z,2.63
2018-11-07T22:34:39.497Z,2.77
2018-11-07T22:37:08.218Z,3.27
2018-11-07T22:39:36.772Z,2.97
2018-11-07T22:42:05.506Z,2.80
2018-11-07T22:44:34.030Z,3.10
2018-11-07T22:47:02.550Z,2.90
2018-11-07T22:49:31.057Z,4.90
2018-11-07T22:51:59.614Z,3.60
2018-11-07T22:54:28.102Z,2.80
2018-11-07T22:56:56.814Z,3.50
2018-11-07T22:59:25.347Z,3.40
2018-11-07T23:01:53.923Z,3.17
2018-11-07T23:04:22.483Z,2.93
2018-11-07T23:06:51.020Z,3.30
2018-11-07T23:09:19.810Z,3.17
2018-11-07T23:11:48.455Z,2.67
2018-11-07T23:14:16.980Z,3.00
2018-11-07T23:16:45.581Z,3.80
2018-11-07T23:19:14.134Z,2.80
2018-11-07T23:21:42.653Z,3.50
2018-11-07T23:24:11.234Z,3.70
2018-11-07T23:26:39.821Z,3.10
2018-11-07T23:29:08.398Z,3.93
2018-11-07T23:31:37.016Z,3.33
2018-11-07T23:34:05.710Z,3.67
2018-11-07T23:36:34.317Z,3.27
2018-11-07T23:39:02.954Z,3.27
2018-11-07T23:41:31.461Z,3.40
2018-11-07T23:44:00.241Z,3.30
2018-11-07T23:46:28.806Z,3.30
2018-11-07T23:48:57.289Z,3.23
2018-11-07T23:51:25.878Z,3.50
2018-11-07T23:53:54.457Z,3.03
2018-11-07T23:56:22.934Z,3.80
2018-11-07T23:58:51.422Z,2.90
